createdAt,value
2022-11-12T00:00:13.908Z,5.92
2022-11-12T00:01:12.955Z,7.52
2022-11-12T00:02:13.055Z,6.16
2022-11-12T00:03:13.335Z,8.36
2022-11-12T00:04:13.478Z,7.84
2022-11-12T00:05:13.435Z,6.56
2022-11-12T00:06:13.642Z,6.28
2022-11-12T00:07:13.611Z,5.64
2022-11-12T00:08:13.655Z,3.84
2022-11-12T00:09:13.561Z,4.88
2022-11-12T00:10:13.731Z,5.64
2022-11-12T00:11:13.838Z,8.00
2022-11-12T00:12:13.779Z,8.12
2022-11-12T00:13:14.258Z,7.12
2022-11-12T00:14:13.570Z,7.36
2022-11-12T00:15:13.381Z,5.56
2022-11-12T00:16:13.642Z,6.96
2022-11-12T00:17:13.796Z,5.56
2022-11-12T00:18:14.047Z,10.48
2022-11-12T00:19:13.129Z,9.40
2022-11-12T00:20:13.265Z,6.80
2022-11-12T00:21:13.693Z,8.44
2022-11-12T00:22:13.608Z,10.16
2022-11-12T00:23:13.591Z,9.36
2022-11-12T00:24:13.481Z,10.60
2022-11-12T00:25:13.657Z,8.88
2022-11-12T00:26:13.609Z,8.40
2022-11-12T00:27:13.414Z,10.24
2022-11-12T00:28:13.448Z,8.20
2022-11-12T00:29:13.505Z,9.00
2022-11-12T00:30:13.399Z,9.44
2022-11-12T00:31:13.820Z,9.36
2022-11-12T00:32:13.655Z,10.44
2022-11-12T00:33:13.608Z,12.04
2022-11-12T00:34:13.595Z,8.32
2022-11-12T00:35:14.260Z,12.04
2022-11-12T00:36:13.772Z,4.72
2022-11-12T00:37:14.058Z,3.76
2022-11-12T00:38:12.969Z,7.28
2022-11-12T00:39:13.484Z,4.00
2022-11-12T00:40:13.431Z,3.84
2022-11-12T00:41:13.540Z,6.32
2022-11-12T00:42:13.684Z,4.12
2022-11-12T00:43:14.023Z,2.40
2022-11-12T00:44:13.019Z,4.00
2022-11-12T00:45:12.997Z,3.68
2022-11-12T00:46:13.006Z,0.76
2022-11-12T00:47:12.984Z,0.00
2022-11-12T00:48:13.302Z,0.24
2022-11-12T00:49:13.161Z,0.24
2022-11-12T00:50:13.226Z,0.00
2022-11-12T00:51:13.219Z,0.00
2022-11-12T00:52:13.451Z,0.00
2022-11-12T00:53:13.730Z,0.00
2022-11-12T00:54:14.268Z,0.00
2022-11-12T00:55:13.426Z,0.00
2022-11-12T00:56:13.777Z,0.00
2022-11-12T00:57:13.671Z,0.00
2022-11-12T00:58:13.892Z,0.16
2022-11-12T00:59:13.010Z,1.32
2022-11-12T01:00:13.072Z,3.40
2022-11-12T01:01:13.295Z,3.64
2022-11-12T01:02:13.554Z,4.20
2022-11-12T01:03:13.968Z,6.04
2022-11-12T01:04:13.133Z,6.52
2022-11-12T01:05:13.108Z,7.28
2022-11-12T01:06:12.937Z,6.44
2022-11-12T01:07:13.234Z,4.60
2022-11-12T01:08:13.716Z,5.04
2022-11-12T01:09:13.959Z,2.92
2022-11-12T01:10:13.216Z,4.52
2022-11-12T01:11:13.255Z,2.44
2022-11-12T01:12:13.288Z,3.56
2022-11-12T01:13:13.224Z,2.84
2022-11-12T01:14:13.100Z,1.92
2022-11-12T01:15:13.164Z,3.32
2022-11-12T01:16:18.183Z,4.24
2022-11-12T01:17:13.079Z,3.56
2022-11-12T01:18:13.150Z,2.92
2022-11-12T01:19:13.145Z,3.16
2022-11-12T01:20:13.121Z,2.48
2022-11-12T01:21:13.251Z,3.48
2022-11-12T01:22:13.129Z,2.60
2022-11-12T01:23:13.043Z,0.72
2022-11-12T01:24:13.067Z,0.00
2022-11-12T01:25:13.004Z,0.00
2022-11-12T01:26:12.891Z,0.00
2022-11-12T01:27:12.888Z,0.00
2022-11-12T01:28:18.412Z,0.00
2022-11-12T01:29:13.469Z,0.00
2022-11-12T01:30:13.768Z,0.00
2022-11-12T01:31:13.976Z,0.00
2022-11-12T01:32:13.091Z,0.00
2022-11-12T01:33:13.333Z,0.00
2022-11-12T01:34:13.591Z,0.00
2022-11-12T01:35:13.825Z,0.00
2022-11-12T01:36:13.847Z,0.00
2022-11-12T01:37:14.034Z,0.00
2022-11-12T01:38:12.940Z,0.00
2022-11-12T01:39:12.863Z,0.00
2022-11-12T01:40:13.005Z,0.00
2022-11-12T01:41:13.178Z,0.00
2022-11-12T01:42:13.358Z,0.00
2022-11-12T01:43:12.828Z,0.00
2022-11-12T01:44:13.899Z,0.00
2022-11-12T01:45:12.985Z,0.00
2022-11-12T01:46:13.124Z,0.00
2022-11-12T01:47:13.436Z,0.00
2022-11-12T01:48:20.029Z,0.00
2022-11-12T01:49:13.950Z,0.00
2022-11-12T01:50:13.739Z,0.00
2022-11-12T01:51:14.332Z,0.00
2022-11-12T01:52:13.921Z,0.00
2022-11-12T01:53:12.882Z,0.00
2022-11-12T01:54:13.007Z,0.00
2022-11-12T01:55:13.210Z,0.00
2022-11-12T01:56:13.270Z,0.00
2022-11-12T01:57:14.077Z,0.72
2022-11-12T01:58:13.841Z,0.00
2022-11-12T01:59:14.639Z,0.00
2022-11-12T02:00:14.080Z,1.04
2022-11-12T02:01:13.903Z,1.68
2022-11-12T02:02:13.539Z,2.08
2022-11-12T02:03:13.995Z,0.28
2022-11-12T02:04:13.876Z,0.00
2022-11-12T02:05:14.249Z,0.00
2022-11-12T02:06:14.133Z,1.48
2022-11-12T02:07:13.982Z,0.24
2022-11-12T02:08:13.344Z,0.00
2022-11-12T02:09:13.659Z,0.00
2022-11-12T02:10:14.475Z,0.00
2022-11-12T02:11:13.532Z,0.00
2022-11-12T02:12:13.762Z,0.00
2022-11-12T02:13:13.902Z,0.00
2022-11-12T02:14:12.947Z,0.00
2022-11-12T02:15:18.191Z,0.00
2022-11-12T02:16:13.870Z,0.00
2022-11-12T02:17:14.321Z,0.00
2022-11-12T02:18:14.000Z,0.00
2022-11-12T02:19:13.617Z,0.00
2022-11-12T02:20:14.544Z,0.00
2022-11-12T02:21:14.258Z,0.00
2022-11-12T02:22:14.328Z,0.00
2022-11-12T02:23:13.758Z,0.00
2022-11-12T02:24:14.813Z,0.00
2022-11-12T02:25:19.550Z,0.00
2022-11-12T02:26:14.574Z,0.00
2022-11-12T02:27:13.820Z,0.00
2022-11-12T02:28:15.899Z,0.00
2022-11-12T02:29:13.247Z,0.00
2022-11-12T02:30:13.460Z,0.00
2022-11-12T02:31:14.317Z,0.00
2022-11-12T02:32:14.129Z,0.00
2022-11-12T02:33:13.693Z,0.00
2022-11-12T02:34:15.553Z,0.00
2022-11-12T02:35:14.193Z,0.00
2022-11-12T02:36:13.148Z,0.00
2022-11-12T02:37:13.811Z,0.00
2022-11-12T02:38:19.473Z,0.00
2022-11-12T02:39:13.720Z,0.00
2022-11-12T02:40:14.490Z,0.00
2022-11-12T02:41:14.692Z,0.00
2022-11-12T02:42:14.361Z,0.00
2022-11-12T02:43:13.498Z,0.00
2022-11-12T02:44:13.638Z,0.00
2022-11-12T02:45:13.541Z,0.00
2022-11-12T02:46:13.792Z,0.00
2022-11-12T02:47:13.798Z,0.00
2022-11-12T02:48:18.068Z,0.00
2022-11-12T02:49:14.000Z,0.00
2022-11-12T02:50:13.364Z,0.00
2022-11-12T02:51:16.560Z,0.00
2022-11-12T02:52:13.835Z,0.00
2022-11-12T02:53:14.293Z,0.00
2022-11-12T02:54:13.535Z,0.00
2022-11-12T02:55:13.690Z,0.00
2022-11-12T02:56:14.140Z,0.00
2022-11-12T02:57:13.401Z,0.00
2022-11-12T02:58:13.379Z,0.00
2022-11-12T02:59:13.820Z,0.00
2022-11-12T03:00:13.956Z,0.00
2022-11-12T03:01:14.070Z,0.00
2022-11-12T03:02:13.851Z,0.00
2022-11-12T03:03:25.141Z,0.00
2022-11-12T03:04:14.427Z,0.00
2022-11-12T03:05:15.115Z,0.00
2022-11-12T03:06:13.150Z,0.00
2022-11-12T03:07:13.201Z,0.00
2022-11-12T03:08:13.109Z,0.00
2022-11-12T03:09:13.109Z,0.00
2022-11-12T03:10:13.003Z,0.00
2022-11-12T03:11:13.241Z,0.00
2022-11-12T03:12:13.215Z,0.00
2022-11-12T03:13:18.191Z,0.00
2022-11-12T03:14:13.404Z,0.00
2022-11-12T03:15:13.668Z,0.00
2022-11-12T03:16:13.898Z,0.00
2022-11-12T03:17:12.956Z,0.00
2022-11-12T03:18:18.041Z,0.00
2022-11-12T03:19:13.019Z,0.00
2022-11-12T03:20:13.064Z,0.00
2022-11-12T03:21:17.983Z,0.00
2022-11-12T03:22:12.778Z,0.00
2022-11-12T03:23:14.046Z,0.00
2022-11-12T03:24:13.074Z,0.00
2022-11-12T03:25:13.160Z,0.00
2022-11-12T03:26:13.228Z,0.16
2022-11-12T03:27:14.522Z,0.88
2022-11-12T03:28:13.589Z,0.44
2022-11-12T03:29:13.806Z,0.56
2022-11-12T03:30:14.061Z,2.64
2022-11-12T03:31:12.851Z,0.76
2022-11-12T03:32:13.718Z,0.00
2022-11-12T03:33:13.837Z,0.00
2022-11-12T03:34:13.856Z,0.56
2022-11-12T03:35:13.895Z,0.20
2022-11-12T03:36:13.172Z,0.04
2022-11-12T03:37:13.491Z,0.16
2022-11-12T03:38:13.429Z,0.00
2022-11-12T03:39:13.289Z,0.00
2022-11-12T03:40:13.126Z,0.60
2022-11-12T03:41:14.299Z,0.16
2022-11-12T03:42:13.190Z,0.76
2022-11-12T03:43:13.319Z,0.00
2022-11-12T03:44:13.294Z,0.48
2022-11-12T03:45:13.240Z,0.72
2022-11-12T03:46:13.150Z,2.08
2022-11-12T03:47:13.177Z,0.44
2022-11-12T03:48:13.469Z,0.00
2022-11-12T03:49:14.361Z,0.00
2022-11-12T03:50:13.315Z,0.00
2022-11-12T03:51:12.770Z,0.00
2022-11-12T03:52:13.691Z,0.00
2022-11-12T03:53:13.682Z,0.00
2022-11-12T03:54:13.919Z,0.32
2022-11-12T03:55:13.062Z,0.00
2022-11-12T03:56:13.287Z,0.28
2022-11-12T03:57:13.507Z,0.72
2022-11-12T03:58:13.649Z,0.52
2022-11-12T03:59:14.028Z,0.28
2022-11-12T04:00:13.113Z,0.20
2022-11-12T04:01:13.259Z,0.00
2022-11-12T04:02:13.318Z,0.00
2022-11-12T04:03:13.216Z,0.00
2022-11-12T04:04:18.184Z,0.00
2022-11-12T04:05:13.420Z,0.16
2022-11-12T04:06:13.351Z,0.00
2022-11-12T04:07:13.329Z,0.00
2022-11-12T04:08:13.208Z,0.00
2022-11-12T04:09:13.552Z,0.00
2022-11-12T04:10:13.583Z,0.00
2022-11-12T04:11:13.587Z,0.00
2022-11-12T04:12:13.742Z,0.00
2022-11-12T04:13:13.817Z,0.00
2022-11-12T04:14:13.850Z,0.00
2022-11-12T04:15:13.979Z,0.00
2022-11-12T04:16:13.088Z,0.00
2022-11-12T04:17:14.441Z,0.00
2022-11-12T04:18:13.482Z,0.00
2022-11-12T04:19:13.438Z,0.00
2022-11-12T04:20:13.339Z,0.00
2022-11-12T04:21:13.241Z,0.00
2022-11-12T04:22:13.270Z,0.00
2022-11-12T04:23:13.415Z,0.00
2022-11-12T04:24:13.284Z,0.00
2022-11-12T04:25:13.273Z,0.00
2022-11-12T04:26:13.160Z,0.00
2022-11-12T04:27:13.059Z,0.00
2022-11-12T04:28:12.992Z,0.00
2022-11-12T04:29:12.982Z,0.00
2022-11-12T04:30:12.931Z,0.00
2022-11-12T04:31:18.087Z,0.00
2022-11-12T04:32:13.243Z,0.28
2022-11-12T04:33:13.609Z,0.00
2022-11-12T04:34:13.630Z,0.00
2022-11-12T04:35:13.620Z,0.00
2022-11-12T04:36:13.846Z,0.00
2022-11-12T04:37:14.063Z,0.00
2022-11-12T04:38:13.358Z,0.00
2022-11-12T04:39:13.349Z,0.00
2022-11-12T04:40:13.252Z,0.00
2022-11-12T04:41:13.297Z,0.00
2022-11-12T04:42:13.277Z,0.00
2022-11-12T04:43:13.152Z,0.00
2022-11-12T04:44:13.201Z,0.00
2022-11-12T04:45:13.155Z,0.00
2022-11-12T04:46:13.158Z,0.00
2022-11-12T04:47:13.544Z,0.32
2022-11-12T04:48:13.638Z,0.52
2022-11-12T04:49:13.696Z,0.16
2022-11-12T04:50:13.705Z,0.00
2022-11-12T04:51:13.703Z,0.00
2022-11-12T04:52:13.733Z,0.00
2022-11-12T04:53:14.058Z,0.00
2022-11-12T04:54:13.279Z,0.00
2022-11-12T04:55:13.274Z,0.00
2022-11-12T04:56:13.344Z,0.00
2022-11-12T04:57:13.624Z,0.00
2022-11-12T04:58:13.753Z,0.16
2022-11-12T04:59:13.922Z,0.00
2022-11-12T05:00:13.210Z,0.12
2022-11-12T05:01:13.481Z,0.00
2022-11-12T05:02:13.054Z,0.16
2022-11-12T05:03:13.382Z,0.00
2022-11-12T05:04:13.352Z,0.00
2022-11-12T05:06:13.180Z,0.12
2022-11-12T05:07:13.081Z,0.00
2022-11-12T05:08:12.968Z,0.00
2022-11-12T05:09:43.522Z,0.00
2022-11-12T05:10:13.391Z,0.00
2022-11-12T05:11:13.532Z,0.00
2022-11-12T05:12:13.553Z,0.00
2022-11-12T05:13:13.751Z,0.00
2022-11-12T05:14:18.550Z,0.00
2022-11-12T05:15:13.560Z,0.00
2022-11-12T05:16:13.582Z,0.00
2022-11-12T05:17:13.533Z,0.00
2022-11-12T05:18:13.456Z,0.00
2022-11-12T05:19:34.803Z,0.00
2022-11-12T05:20:13.745Z,0.08
2022-11-12T05:21:13.645Z,0.00
2022-11-12T05:22:27.214Z,0.00
2022-11-12T05:23:14.014Z,0.00
2022-11-12T05:24:41.980Z,0.00
2022-11-12T05:25:13.523Z,0.06
2022-11-12T05:26:13.670Z,0.00
2022-11-12T05:27:13.531Z,0.00
2022-11-12T05:28:13.542Z,0.00
2022-11-12T05:29:13.816Z,0.00
2022-11-12T05:30:13.890Z,0.00
2022-11-12T05:31:13.835Z,0.00
2022-11-12T05:32:13.933Z,0.00
2022-11-12T05:33:12.963Z,0.00
2022-11-12T05:34:13.161Z,0.00
2022-11-12T05:35:13.274Z,0.00
2022-11-12T05:36:13.540Z,0.00
2022-11-12T05:37:13.695Z,0.00
2022-11-12T05:38:13.991Z,0.00
2022-11-12T05:39:13.248Z,0.00
2022-11-12T05:40:13.155Z,0.00
2022-11-12T05:41:18.754Z,0.00
2022-11-12T05:42:14.279Z,0.00
2022-11-12T05:43:13.840Z,0.00
2022-11-12T05:44:13.940Z,0.00
2022-11-12T05:45:12.910Z,0.00
2022-11-12T05:46:13.075Z,0.00
2022-11-12T05:47:13.165Z,0.00
2022-11-12T05:48:13.131Z,0.00
2022-11-12T05:49:13.370Z,0.00
2022-11-12T05:50:13.407Z,0.00
2022-11-12T05:51:14.041Z,0.00
2022-11-12T05:52:13.468Z,0.00
2022-11-12T05:53:13.435Z,0.00
2022-11-12T05:54:13.780Z,0.00
2022-11-12T05:55:13.605Z,0.00
2022-11-12T05:56:13.894Z,0.00
2022-11-12T05:57:12.742Z,0.00
2022-11-12T05:58:13.617Z,0.00
2022-11-12T05:59:13.574Z,0.00
2022-11-12T06:00:13.652Z,0.00
2022-11-12T06:01:13.718Z,0.00
2022-11-12T06:02:13.788Z,0.00
2022-11-12T06:03:13.877Z,0.00
2022-11-12T06:04:13.798Z,0.00
2022-11-12T06:05:13.682Z,0.00
2022-11-12T06:06:13.055Z,0.00
2022-11-12T06:07:13.373Z,0.00
2022-11-12T06:08:13.320Z,0.00
2022-11-12T06:09:13.254Z,0.00
2022-11-12T06:10:19.170Z,0.00
2022-11-12T06:11:13.424Z,0.00
2022-11-12T06:12:13.434Z,0.00
2022-11-12T06:13:13.380Z,0.00
2022-11-12T06:14:18.524Z,0.00
2022-11-12T06:15:13.625Z,0.00
2022-11-12T06:16:13.768Z,0.00
2022-11-12T06:17:13.678Z,0.00
2022-11-12T06:18:13.576Z,0.00
2022-11-12T06:19:13.589Z,0.00
2022-11-12T06:20:13.804Z,0.00
2022-11-12T06:21:14.162Z,0.00
2022-11-12T06:22:13.053Z,0.00
2022-11-12T06:23:13.127Z,0.00
2022-11-12T06:24:13.626Z,0.00
2022-11-12T06:25:13.651Z,0.00
2022-11-12T06:26:13.603Z,0.00
2022-11-12T06:27:13.792Z,0.00
2022-11-12T06:28:13.797Z,0.00
2022-11-12T06:29:13.751Z,0.00
2022-11-12T06:30:13.629Z,0.00
2022-11-12T06:31:13.645Z,0.00
2022-11-12T06:32:13.611Z,0.00
2022-11-12T06:33:13.589Z,0.00
2022-11-12T06:34:13.595Z,0.00
2022-11-12T06:35:13.498Z,0.00
2022-11-12T06:36:13.460Z,0.00
2022-11-12T06:37:13.444Z,0.00
2022-11-12T06:38:13.703Z,0.00
2022-11-12T06:39:13.886Z,0.00
2022-11-12T06:40:13.863Z,0.00
2022-11-12T06:41:13.738Z,0.00
2022-11-12T06:42:13.897Z,0.00
2022-11-12T06:43:12.935Z,0.00
2022-11-12T06:44:14.680Z,0.08
2022-11-12T06:45:13.730Z,0.44
2022-11-12T06:46:13.790Z,0.16
2022-11-12T06:47:13.778Z,0.00
2022-11-12T06:48:13.967Z,0.00
2022-11-12T06:49:12.974Z,0.00
2022-11-12T06:50:12.872Z,0.00
2022-11-12T06:51:13.944Z,0.00
2022-11-12T06:52:16.545Z,0.00
2022-11-12T06:53:12.959Z,0.00
2022-11-12T06:54:12.933Z,0.00
2022-11-12T06:55:13.044Z,0.00
2022-11-12T06:56:12.981Z,0.12
2022-11-12T06:57:12.834Z,0.00
2022-11-12T06:58:14.155Z,0.00
2022-11-12T06:59:13.137Z,0.00
2022-11-12T07:00:13.326Z,0.00
2022-11-12T07:01:13.585Z,0.00
2022-11-12T07:02:13.791Z,0.00
2022-11-12T07:03:13.656Z,0.00
2022-11-12T07:04:13.600Z,0.00
2022-11-12T07:05:15.886Z,0.00
2022-11-12T07:06:12.860Z,0.00
2022-11-12T07:07:13.880Z,0.00
2022-11-12T07:08:12.789Z,0.00
2022-11-12T07:09:13.784Z,0.00
2022-11-12T07:10:13.647Z,0.00
2022-11-12T07:11:13.673Z,0.12
2022-11-12T07:12:13.601Z,0.00
2022-11-12T07:13:13.659Z,0.60
2022-11-12T07:14:13.630Z,0.20
2022-11-12T07:15:13.565Z,0.00
2022-11-12T07:16:13.569Z,0.00
2022-11-12T07:17:13.603Z,0.00
2022-11-12T07:18:13.585Z,0.00
2022-11-12T07:19:13.458Z,0.00
2022-11-12T07:20:13.383Z,0.00
2022-11-12T07:21:13.298Z,0.92
2022-11-12T07:22:13.536Z,1.96
2022-11-12T07:23:13.413Z,1.04
2022-11-12T07:24:13.602Z,1.08
2022-11-12T07:25:13.665Z,0.68
2022-11-12T07:26:13.761Z,1.52
2022-11-12T07:27:13.971Z,2.40
2022-11-12T07:28:17.925Z,2.64
2022-11-12T07:29:24.945Z,2.44
2022-11-12T07:30:13.251Z,1.32
2022-11-12T07:31:13.069Z,1.56
2022-11-12T07:32:13.174Z,1.44
2022-11-12T07:33:13.287Z,3.28
2022-11-12T07:34:13.377Z,5.32
2022-11-12T07:35:13.427Z,5.36
2022-11-12T07:36:13.875Z,5.88
2022-11-12T07:37:13.879Z,4.96
2022-11-12T07:38:13.842Z,4.84
2022-11-12T07:39:13.768Z,3.24
2022-11-12T07:40:13.702Z,1.84
2022-11-12T07:41:13.648Z,1.40
2022-11-12T07:42:13.573Z,1.36
2022-11-12T07:43:13.740Z,0.12
2022-11-12T07:44:13.841Z,0.00
2022-11-12T07:45:14.412Z,0.00
2022-11-12T07:46:13.586Z,0.00
2022-11-12T07:47:13.870Z,0.00
2022-11-12T07:48:14.145Z,0.00
2022-11-12T07:49:13.047Z,0.00
2022-11-12T07:50:13.215Z,0.00
2022-11-12T07:51:13.714Z,0.00
2022-11-12T07:52:13.859Z,0.00
2022-11-12T07:53:13.659Z,0.00
2022-11-12T07:54:13.571Z,0.00
2022-11-12T07:55:13.560Z,0.00
2022-11-12T07:56:13.516Z,0.00
2022-11-12T07:57:13.382Z,0.00
2022-11-12T07:58:13.428Z,0.00
2022-11-12T07:59:13.340Z,0.00
2022-11-12T08:00:13.394Z,0.00
2022-11-12T08:01:13.564Z,0.00
2022-11-12T08:02:13.531Z,0.00
2022-11-12T08:03:13.731Z,0.00
2022-11-12T08:04:13.896Z,0.00
2022-11-12T08:05:17.553Z,0.00
2022-11-12T08:06:13.292Z,0.00
2022-11-12T08:07:13.549Z,0.00
2022-11-12T08:08:13.584Z,0.00
2022-11-12T08:09:13.574Z,0.00
2022-11-12T08:10:13.415Z,0.00
2022-11-12T08:11:13.274Z,0.00
2022-11-12T08:12:13.174Z,0.00
2022-11-12T08:13:13.161Z,0.00
2022-11-12T08:14:13.188Z,0.00
2022-11-12T08:15:13.064Z,0.00
2022-11-12T08:16:12.932Z,0.00
2022-11-12T08:17:12.903Z,0.00
2022-11-12T08:18:13.012Z,0.00
2022-11-12T08:19:12.985Z,0.00
2022-11-12T08:20:13.008Z,0.00
2022-11-12T08:21:13.247Z,0.00
2022-11-12T08:22:13.154Z,0.00
2022-11-12T08:23:13.093Z,0.00
2022-11-12T08:24:13.151Z,0.00
2022-11-12T08:25:13.218Z,0.04
2022-11-12T08:26:13.234Z,0.40
2022-11-12T08:27:13.310Z,0.00
2022-11-12T08:28:13.217Z,0.00
2022-11-12T08:29:14.406Z,0.00
2022-11-12T08:30:13.242Z,0.00
2022-11-12T08:31:13.238Z,0.00
2022-11-12T08:32:13.062Z,0.00
2022-11-12T08:33:13.026Z,0.00
2022-11-12T08:34:15.083Z,0.00
2022-11-12T08:35:13.381Z,0.00
2022-11-12T08:36:13.279Z,0.00
2022-11-12T08:37:13.499Z,0.00
2022-11-12T08:38:13.486Z,0.00
2022-11-12T08:39:13.454Z,0.00
2022-11-12T08:40:13.459Z,0.00
2022-11-12T08:41:13.429Z,0.00
2022-11-12T08:42:13.384Z,0.00
2022-11-12T08:43:13.723Z,0.00
2022-11-12T08:44:13.668Z,0.00
2022-11-12T08:45:13.608Z,0.00
2022-11-12T08:46:13.636Z,0.00
2022-11-12T08:47:13.711Z,0.00
2022-11-12T08:48:13.597Z,0.00
2022-11-12T08:49:13.788Z,0.00
2022-11-12T08:50:14.037Z,0.00
2022-11-12T08:51:12.997Z,0.00
2022-11-12T08:52:12.895Z,0.00
2022-11-12T08:53:12.908Z,0.00
2022-11-12T08:54:13.215Z,0.00
2022-11-12T08:55:13.204Z,0.00
2022-11-12T08:56:13.138Z,0.00
2022-11-12T08:57:13.053Z,0.48
2022-11-12T08:58:12.984Z,0.00
2022-11-12T08:59:13.135Z,0.00
2022-11-12T09:00:13.125Z,0.00
2022-11-12T09:01:13.172Z,0.00
2022-11-12T09:02:13.088Z,0.80
2022-11-12T09:03:13.006Z,1.16
2022-11-12T09:04:13.119Z,2.00
2022-11-12T09:05:13.591Z,1.84
2022-11-12T09:06:15.055Z,1.68
2022-11-12T09:07:43.404Z,0.84
2022-11-12T09:08:13.325Z,0.96
2022-11-12T09:09:23.022Z,1.64
2022-11-12T09:10:13.208Z,1.40
2022-11-12T09:11:13.505Z,1.08
2022-11-12T09:12:19.113Z,0.00
2022-11-12T09:13:13.789Z,0.00
2022-11-12T09:14:13.757Z,0.44
2022-11-12T09:15:36.895Z,0.04
2022-11-12T09:16:13.907Z,0.36
2022-11-12T09:17:13.056Z,1.08
2022-11-12T09:18:13.072Z,0.88
2022-11-12T09:19:13.288Z,0.00
2022-11-12T09:20:13.288Z,0.00
2022-11-12T09:21:13.572Z,0.00
2022-11-12T09:22:13.651Z,0.00
2022-11-12T09:23:13.669Z,0.00
2022-11-12T09:24:13.914Z,0.00
2022-11-12T09:25:13.050Z,0.00
2022-11-12T09:26:13.007Z,0.00
2022-11-12T09:27:13.127Z,0.00
2022-11-12T09:28:13.602Z,0.00
2022-11-12T09:29:13.939Z,0.00
2022-11-12T09:30:12.863Z,0.00
2022-11-12T09:31:13.748Z,0.00
2022-11-12T09:32:13.860Z,0.00
2022-11-12T09:33:13.824Z,0.00
2022-11-12T09:34:13.710Z,0.00
2022-11-12T09:35:13.815Z,0.00
2022-11-12T09:36:13.818Z,0.00
2022-11-12T09:37:13.940Z,0.00
2022-11-12T09:38:12.857Z,0.00
2022-11-12T09:39:13.693Z,0.00
2022-11-12T09:40:13.771Z,0.00
2022-11-12T09:41:14.754Z,0.00
2022-11-12T09:42:13.795Z,0.00
2022-11-12T09:43:13.905Z,0.00
2022-11-12T09:44:12.906Z,0.00
2022-11-12T09:45:12.822Z,0.00
2022-11-12T09:46:27.061Z,0.00
2022-11-12T09:47:12.979Z,0.00
2022-11-12T09:48:13.507Z,0.00
2022-11-12T09:49:13.731Z,0.00
2022-11-12T09:50:13.639Z,0.00
2022-11-12T09:51:13.632Z,0.00
2022-11-12T09:52:13.584Z,0.00
2022-11-12T09:53:13.467Z,0.00
2022-11-12T09:54:13.433Z,0.00
2022-11-12T09:55:13.575Z,0.00
2022-11-12T09:56:13.470Z,0.00
2022-11-12T09:57:14.194Z,0.00
2022-11-12T09:58:18.436Z,0.00
2022-11-12T09:59:13.394Z,0.00
2022-11-12T10:00:13.923Z,0.16
2022-11-12T10:01:12.892Z,1.04
2022-11-12T10:02:12.879Z,0.00
2022-11-12T10:03:13.857Z,0.08
2022-11-12T10:04:13.941Z,0.28
2022-11-12T10:05:12.931Z,2.88
2022-11-12T10:06:18.141Z,0.08
2022-11-12T10:07:13.674Z,0.00
2022-11-12T10:08:13.590Z,0.00
2022-11-12T10:09:13.865Z,0.00
2022-11-12T10:10:13.093Z,0.00
2022-11-12T10:11:13.213Z,0.24
2022-11-12T10:12:13.447Z,0.08
2022-11-12T10:13:13.278Z,0.00
2022-11-12T10:14:13.143Z,0.00
2022-11-12T10:15:13.020Z,0.00
2022-11-12T10:16:13.157Z,0.00
2022-11-12T10:17:13.243Z,0.48
2022-11-12T10:18:13.270Z,0.36
2022-11-12T10:19:13.283Z,2.00
2022-11-12T10:20:13.201Z,0.48
2022-11-12T10:21:13.767Z,2.12
2022-11-12T10:22:13.604Z,2.72
2022-11-12T10:23:13.606Z,0.51
2022-11-12T10:24:13.989Z,4.60
2022-11-12T10:25:13.242Z,0.44
2022-11-12T10:26:13.247Z,0.00
2022-11-12T10:27:13.369Z,0.24
2022-11-12T10:28:13.419Z,3.12
2022-11-12T10:29:13.405Z,0.88
2022-11-12T10:30:13.347Z,1.36
2022-11-12T10:31:13.338Z,2.28
2022-11-12T10:32:13.665Z,3.76
2022-11-12T10:33:13.682Z,0.00
2022-11-12T10:34:13.796Z,0.92
2022-11-12T10:35:13.740Z,0.16
2022-11-12T10:36:14.040Z,0.56
2022-11-12T10:37:12.949Z,2.24
2022-11-12T10:38:12.729Z,4.28
2022-11-12T10:39:13.637Z,0.36
2022-11-12T10:40:13.566Z,0.24
2022-11-12T10:41:13.679Z,1.68
2022-11-12T10:42:14.013Z,2.92
2022-11-12T10:43:13.061Z,3.88
2022-11-12T10:44:13.167Z,3.00
2022-11-12T10:45:13.425Z,5.20
2022-11-12T10:46:13.453Z,5.92
2022-11-12T10:47:35.171Z,6.32
2022-11-12T10:50:30.516Z,5.20
2022-11-12T10:52:13.346Z,13.92
2022-11-12T10:53:13.347Z,10.16
2022-11-12T10:54:13.330Z,12.96
2022-11-12T10:55:18.509Z,11.28
2022-11-12T10:56:33.981Z,12.24
2022-11-12T10:57:12.986Z,10.32
2022-11-12T10:58:12.896Z,7.40
2022-11-12T11:00:13.221Z,3.12
2022-11-12T11:01:13.217Z,4.56
2022-11-12T11:02:22.009Z,7.68
2022-11-12T11:03:13.230Z,5.08
2022-11-12T11:04:13.207Z,9.88
2022-11-12T11:05:13.113Z,10.20
2022-11-12T11:06:55.499Z,11.28
2022-11-12T11:07:19.014Z,2.88
2022-11-12T11:08:18.243Z,6.40
2022-11-12T11:09:13.120Z,7.20
2022-11-12T11:11:14.070Z,5.40
2022-11-12T11:12:20.346Z,6.90
2022-11-12T11:13:13.518Z,4.96
2022-11-12T11:14:39.443Z,1.84
2022-11-12T11:15:13.890Z,10.08
2022-11-12T11:16:12.844Z,7.28
2022-11-12T11:17:13.820Z,11.28
2022-11-12T11:19:13.835Z,7.20
2022-11-12T11:20:13.985Z,6.44
2022-11-12T11:21:12.893Z,7.40
2022-11-12T11:22:38.684Z,6.48
2022-11-12T11:23:17.602Z,18.00
2022-11-12T11:24:13.735Z,17.10
2022-11-12T11:25:13.841Z,14.04
2022-11-12T11:26:13.779Z,20.59
2022-11-12T11:27:40.579Z,19.08
2022-11-12T11:28:22.091Z,16.72
2022-11-12T11:29:13.233Z,19.41
2022-11-12T11:30:32.733Z,4.56
2022-11-12T11:31:13.939Z,0.48
2022-11-12T11:32:13.246Z,0.44
2022-11-12T11:33:13.410Z,3.36
2022-11-12T11:34:13.331Z,6.00
2022-11-12T11:35:13.621Z,10.24
2022-11-12T11:36:13.649Z,14.28
2022-11-12T11:37:13.765Z,5.84
2022-11-12T11:38:18.982Z,7.40
2022-11-12T11:39:12.961Z,7.12
2022-11-12T11:40:13.193Z,5.56
2022-11-12T11:41:13.260Z,3.48
2022-11-12T11:43:13.093Z,4.32
2022-11-12T11:44:19.160Z,0.96
2022-11-12T11:45:13.153Z,5.64
2022-11-12T11:46:13.253Z,0.88
2022-11-12T11:47:18.489Z,0.92
2022-11-12T11:48:14.687Z,1.36
2022-11-12T11:49:13.773Z,3.16
2022-11-12T11:50:13.742Z,0.44
2022-11-12T11:51:13.869Z,0.32
2022-11-12T11:52:13.724Z,0.00
2022-11-12T11:53:13.572Z,0.00
2022-11-12T11:54:13.791Z,0.68
2022-11-12T11:55:13.818Z,0.00
2022-11-12T11:56:13.749Z,0.88
2022-11-12T11:57:13.678Z,0.00
2022-11-12T11:58:13.557Z,0.00
2022-11-12T11:59:14.617Z,0.24
2022-11-12T12:00:13.513Z,3.60
2022-11-12T12:01:19.458Z,7.00
2022-11-12T12:02:13.768Z,3.80
2022-11-12T12:03:14.132Z,6.64
2022-11-12T12:04:13.121Z,0.16
2022-11-12T12:05:13.062Z,1.36
2022-11-12T12:06:13.087Z,2.52
2022-11-12T12:07:13.331Z,0.00
2022-11-12T12:08:13.773Z,0.00
2022-11-12T12:09:13.742Z,0.00
2022-11-12T12:10:13.841Z,0.00
2022-11-12T12:11:12.752Z,0.20
2022-11-12T12:12:13.977Z,0.00
2022-11-12T12:13:13.058Z,0.00
2022-11-12T12:14:13.005Z,0.00
2022-11-12T12:15:12.999Z,1.56
2022-11-12T12:16:18.365Z,7.00
2022-11-12T12:17:13.539Z,4.04
2022-11-12T12:18:13.541Z,1.64
2022-11-12T12:19:18.636Z,9.96
2022-11-12T12:20:14.795Z,9.88
2022-11-12T12:21:13.713Z,10.00
2022-11-12T12:22:13.678Z,7.80
2022-11-12T12:23:13.657Z,6.60
2022-11-12T12:24:13.710Z,6.60
2022-11-12T12:25:13.777Z,6.88
2022-11-12T12:26:14.186Z,11.56
2022-11-12T12:27:13.502Z,8.44
2022-11-12T12:28:13.671Z,8.28
2022-11-12T12:29:13.700Z,3.84
2022-11-12T12:30:13.954Z,7.16
2022-11-12T12:31:12.894Z,6.08
2022-11-12T12:32:13.069Z,11.24
2022-11-12T12:33:13.672Z,8.36
2022-11-12T12:34:13.653Z,1.80
2022-11-12T12:35:13.677Z,5.00
2022-11-12T12:36:13.754Z,6.24
2022-11-12T12:37:13.916Z,5.68
2022-11-12T12:38:18.348Z,10.00
2022-11-12T12:39:13.783Z,9.36
2022-11-12T12:40:13.632Z,9.08
2022-11-12T12:41:13.649Z,10.12
2022-11-12T12:42:13.626Z,10.28
2022-11-12T12:43:13.528Z,4.12
2022-11-12T12:44:13.520Z,7.04
2022-11-12T12:45:13.654Z,10.40
2022-11-12T12:46:13.736Z,2.16
2022-11-12T12:47:13.834Z,1.88
2022-11-12T12:48:13.989Z,1.75
2022-11-12T12:49:13.109Z,3.72
2022-11-12T12:50:13.060Z,4.48
2022-11-12T12:51:13.049Z,6.32
2022-11-12T12:52:13.472Z,7.32
2022-11-12T12:53:13.597Z,11.64
2022-11-12T12:54:13.574Z,13.20
2022-11-12T12:55:13.794Z,17.08
2022-11-12T12:56:14.101Z,12.32
2022-11-12T12:57:13.382Z,4.72
2022-11-12T12:58:13.331Z,0.08
2022-11-12T12:59:13.552Z,4.72
2022-11-12T13:00:15.643Z,1.84
2022-11-12T13:01:13.891Z,5.20
2022-11-12T13:02:12.811Z,0.00
2022-11-12T13:03:13.791Z,2.48
2022-11-12T13:04:13.839Z,3.80
2022-11-12T13:05:13.811Z,4.64
2022-11-12T13:06:13.711Z,8.80
2022-11-12T13:07:13.708Z,3.12
2022-11-12T13:08:13.547Z,6.44
2022-11-12T13:09:13.407Z,11.04
2022-11-12T13:10:13.317Z,12.48
2022-11-12T13:11:13.498Z,7.72
2022-11-12T13:12:13.756Z,9.04
2022-11-12T13:13:15.708Z,6.80
2022-11-12T13:14:13.888Z,6.36
2022-11-12T13:15:12.951Z,6.12
2022-11-12T13:16:12.856Z,4.92
2022-11-12T13:17:13.762Z,9.04
2022-11-12T13:18:27.314Z,11.12
2022-11-12T13:19:13.698Z,8.04
2022-11-12T13:20:13.526Z,7.56
2022-11-12T13:21:13.605Z,9.72
2022-11-12T13:22:14.929Z,9.00
2022-11-12T13:23:12.842Z,14.24
2022-11-12T13:24:13.995Z,12.40
2022-11-12T13:25:12.898Z,11.00